Time;durP1;ratioP1;P1;durP2;ratioP2;P2;SDS_P1;SDS_P2;PMS_P1;PMS_P2;Temp;Humidity;BMP_temperature;BMP_pressure;BME280_temperature;BME280_humidity;BME280_pressure;Samples;Min_cycle;Max_cycle;Signal;HPM_P1;HPM_P2
2023/04/04 00:01:16;;;;;;;434.98;391.10;;;;;;;21.87;nan;100533.63;20522358;28;20502;-69
2023/04/04 00:11:17;;;;;;;429.65;386.10;;;;;;;21.84;nan;100549.69;20519564;28;20042;-69
2023/04/04 00:21:17;;;;;;;427.65;384.20;;;;;;;21.81;nan;100556.03;20514707;28;20047;-70
2023/04/04 00:31:18;;;;;;;513.72;464.20;;;;;;;21.81;nan;100563.94;20505724;28;21527;-70
2023/04/04 00:41:19;;;;;;;498.27;450.33;;;;;;;21.79;nan;100565.00;20505577;28;20051;-69
2023/04/04 00:51:20;;;;;;;481.23;434.02;;;;;;;21.76;nan;100560.81;20526441;28;20339;-72
2023/04/04 01:01:20;;;;;;;481.95;434.60;;;;;;;;;;20504535;28;20046;-71
2023/04/04 01:11:21;;;;;;;458.48;413.23;;;;;;;21.72;nan;100525.13;20534387;28;20511;-70
2023/04/04 01:21:22;;;;;;;456.05;410.70;;;;;;;21.70;nan;100511.22;20538651;28;20409;-71
2023/04/04 01:31:40;;;;;;;442.48;398.38;;;;;;;21.72;nan;100493.50;20531330;28;20058;-69
2023/04/04 01:41:41;;;;;;;458.20;412.95;;;;;;;21.69;nan;100476.13;20527179;28;20050;-70
2023/04/04 01:51:42;;;;;;;441.58;397.55;;;;;;;21.66;nan;100465.81;20527004;28;20384;-69
2023/04/04 02:01:43;;;;;;;554.72;502.75;;;;;;;21.65;nan;100440.41;20520873;28;20055;-70
2023/04/04 02:11:43;;;;;;;600.42;545.45;;;;;;;21.62;nan;100430.13;20532263;28;20062;-69
2023/04/04 02:21:46;;;;;;;599.05;544.17;;;;;;;21.59;nan;100417.19;20534694;28;20036;-70
2023/04/04 02:31:47;;;;;;;622.67;566.33;;;;;;;21.54;nan;100412.25;20541164;28;20082;-70
2023/04/04 02:41:47;;;;;;;575.10;522.00;;;;;;;21.58;nan;100404.97;20535262;28;20043;-70
2023/04/04 02:51:47;;;;;;;570.90;518.08;;;;;;;21.56;nan;100406.88;20528313;28;20053;-69
2023/04/04 03:01:48;;;;;;;545.78;494.67;;;;;;;21.53;nan;100415.00;20531064;28;20050;-71
2023/04/04 03:11:50;;;;;;;529.00;479.17;;;;;;;21.52;nan;100419.44;20529157;28;20054;-70
2023/04/04 03:21:50;;;;;;;520.67;471.37;;;;;;;21.51;nan;100424.84;20525411;28;20055;-70
2023/04/04 03:31:51;;;;;;;472.73;426.70;;;;;;;21.50;nan;100425.81;20515927;28;20066;-71
2023/04/04 03:41:55;;;;;;;480.27;433.97;;;;;;;21.48;nan;100436.44;20518795;28;20043;-70
2023/04/04 03:51:55;;;;;;;472.70;426.80;;;;;;;21.47;nan;100444.47;20505412;28;20299;-70
2023/04/04 04:01:56;;;;;;;485.92;439.13;;;;;;;21.49;nan;100439.94;20509648;28;20039;-69
2023/04/04 04:12:03;;;;;;;523.20;473.88;;;;;;;21.46;nan;100429.63;20522529;28;20046;-71
2023/04/04 04:22:04;;;;;;;491.27;443.95;;;;;;;21.51;nan;100427.47;20531163;28;20147;-72
2023/04/04 04:32:04;;;;;;;512.95;463.80;;;;;;;21.55;nan;100421.81;20523972;28;20290;-69
2023/04/04 04:42:07;;;;;;;558.25;506.15;;;;;;;21.61;nan;100425.00;20522365;28;20035;-70
2023/04/04 04:52:07;;;;;;;516.00;466.90;;;;;;;21.56;nan;100430.59;20515444;28;20122;-70
2023/04/04 05:02:08;;;;;;;550.47;498.77;;;;;;;21.42;nan;100427.22;20526583;28;20035;-74
2023/04/04 05:12:08;;;;;;;542.67;491.83;;;;;;;21.56;nan;100417.41;20528242;28;20047;-73
2023/04/04 05:22:09;;;;;;;522.10;472.58;;;;;;;21.54;nan;100420.16;20529930;28;20046;-73
2023/04/04 05:32:09;;;;;;;518.03;468.88;;;;;;;21.60;nan;100429.41;20535330;28;20047;-73
2023/04/04 05:42:10;;;;;;;520.83;471.63;;;;;;;21.64;nan;100435.28;20534999;28;20146;-73
2023/04/04 05:52:11;;;;;;;509.92;461.40;;;;;;;21.68;nan;100437.56;20536962;28;20292;-74
2023/04/04 06:02:12;;;;;;;497.33;449.65;;;;;;;21.72;nan;100451.34;20543130;28;20073;-74
2023/04/04 06:12:13;;;;;;;495.83;448.17;;;;;;;21.77;nan;100445.69;20544062;28;20042;-73
2023/04/04 06:22:16;;;;;;;512.42;463.55;;;;;;;21.79;nan;100457.78;20556204;28;20050;-74
2023/04/04 06:32:16;;;;;;;;;;;;;;;21.82;nan;100420.63;20547805;28;20050;-74
2023/04/04 06:42:17;;;;;;;531.25;481.25;;;;;;;21.85;nan;100406.38;20554501;28;19926;-73
2023/04/04 06:52:17;;;;;;;538.83;488.23;;;;;;;21.86;nan;100392.25;20532989;28;20058;-72
2023/04/04 07:02:20;;;;;;;538.50;487.90;;;;;;;21.88;nan;100414.03;20538752;28;20043;-73
2023/04/04 07:12:20;;;;;;;589.00;534.80;;;;;;;21.88;nan;100406.97;20544085;28;20046;-74
2023/04/04 07:22:21;;;;;;;630.00;572.97;;;;;;;21.91;nan;100427.81;20541648;28;20046;-72
2023/04/04 07:32:22;;;;;;;563.17;510.90;;;;;;;21.95;nan;100435.47;20533321;28;20506;-72
2023/04/04 07:42:22;;;;;;;604.67;549.40;;;;;;;21.96;nan;100429.25;20514028;28;20064;-72
2023/04/04 07:52:23;;;;;;;544.03;492.92;;;;;;;21.99;nan;100436.91;20524038;28;20047;-73
2023/04/04 08:02:23;;;;;;;539.45;488.73;;;;;;;22.02;nan;100441.94;20526247;28;20045;-72
2023/04/04 08:12:23;;;;;;;579.35;525.85;;;;;;;22.03;nan;100426.00;20552106;28;20069;-73
2023/04/04 08:22:25;;;;;;;517.17;467.92;;;;;;;22.03;nan;100441.81;20545733;28;20046;-72
2023/04/04 08:32:26;;;;;;;522.30;472.70;;;;;;;22.03;nan;100439.19;20543578;28;20039;-75
2023/04/04 08:42:27;;;;;;;495.98;448.08;;;;;;;22.07;nan;100434.50;20564936;28;20051;-73
2023/04/04 08:52:31;;;;;;;510.08;461.33;;;;;;;22.07;nan;100426.59;20557433;28;20058;-72
2023/04/04 09:02:59;;;;;;;528.78;478.77;;;;;;;22.06;nan;100401.19;20539270;28;20074;-72
2023/04/04 09:13:01;;;;;;;519.10;469.73;;;;;;;22.09;nan;100394.81;20535644;28;20055;-72
2023/04/04 09:23:11;;;;;;;564.33;511.88;;;;;;;22.08;nan;100391.34;20539866;28;20070;-71
2023/04/04 09:33:14;;;;;;;521.88;472.27;;;;;;;22.10;nan;100393.88;20544482;28;20051;-72
2023/04/04 09:43:15;;;;;;;530.40;480.30;;;;;;;22.10;nan;100389.41;20537698;28;20142;-69
2023/04/04 09:53:23;;;;;;;525.00;475.23;;;;;;;22.10;nan;100380.69;20537730;28;20417;-69
2023/04/04 10:03:24;;;;;;;537.85;487.17;;;;;;;22.14;nan;100392.66;20531826;28;20047;-70
2023/04/04 10:13:27;;;;;;;558.33;506.13;;;;;;;22.13;nan;100377.78;20538524;28;20074;-74
2023/04/04 10:23:27;;;;;;;564.78;512.08;;;;;;;22.15;nan;100376.69;20554933;28;20289;-74
2023/04/04 10:33:46;;;;;;;563.28;510.80;;;;;;;22.17;nan;100366.03;20542174;28;21796;-74
2023/04/04 10:43:50;;;;;;;555.00;503.02;;;;;;;22.19;nan;100358.81;20555536;28;20058;-74
2023/04/04 10:53:52;;;;;;;554.38;502.45;;;;;;;22.21;nan;100370.09;20537403;28;20056;-74
2023/04/04 11:04:27;;;;;;;568.33;515.42;;;;;;;22.25;nan;100360.94;20518534;28;20035;-74
2023/04/04 11:14:28;;;;;;;563.20;510.52;;;;;;;22.27;nan;100347.66;20494934;28;20117;-74
2023/04/04 11:24:41;;;;;;;571.97;518.78;;;;;;;22.32;nan;100340.19;20518314;28;20035;-74
2023/04/04 11:34:43;;;;;;;585.85;531.55;;;;;;;22.35;nan;100335.50;20528030;28;20093;-77
2023/04/04 11:44:50;;;;;;;611.40;555.30;;;;;;;22.40;nan;100335.16;20548278;28;20062;-77
2023/04/04 11:54:51;;;;;;;650.10;591.15;;;;;;;22.48;nan;100319.50;20593097;28;20065;-75
2023/04/04 12:04:52;;;;;;;776.95;708.60;;;;;;;22.55;nan;100314.53;20552042;28;20114;-74
2023/04/04 12:14:53;;;;;;;840.17;767.42;;;;;;;22.57;nan;100309.13;20541863;28;20058;-75
2023/04/04 12:24:55;;;;;;;828.33;756.35;;;;;;;22.58;nan;100297.63;20556445;28;20528;-74
2023/04/04 12:35:00;;;;;;;812.22;741.45;;;;;;;22.59;nan;100281.63;20534800;28;20059;-73
2023/04/04 12:45:02;;;;;;;817.25;746.08;;;;;;;22.61;nan;100278.91;20532291;28;20138;-73
2023/04/04 12:55:08;;;;;;;;;;;;;;;22.58;nan;100276.50;20558550;28;21057;-76
2023/04/04 13:05:17;;;;;;;779.33;710.92;;;;;;;22.47;nan;100262.44;20543016;28;19925;-72
2023/04/04 13:15:19;;;;;;;796.20;726.78;;;;;;;22.51;nan;100250.63;20594281;28;20051;-73
2023/04/04 13:25:20;;;;;;;807.05;736.33;;;;;;;22.56;nan;100258.16;20591607;28;20048;-76
2023/04/04 13:35:27;;;;;;;836.35;763.55;;;;;;;22.59;nan;100254.44;20590372;28;20050;-75
2023/04/04 13:45:27;;;;;;;827.63;755.67;;;;;;;22.59;nan;100244.69;20571905;28;20063;-76
2023/04/04 13:55:28;;;;;;;816.83;745.67;;;;;;;22.58;nan;100242.19;20534605;28;20054;-77
2023/04/04 14:05:29;;;;;;;802.42;732.38;;;;;;;22.55;nan;100253.84;20529354;28;20035;-74
2023/04/04 14:15:30;;;;;;;876.42;801.60;;;;;;;22.54;nan;100241.63;20536478;28;20058;-75
2023/04/04 14:25:30;;;;;;;881.33;806.28;;;;;;;22.51;nan;100248.00;20530928;28;20048;-79
2023/04/04 14:35:31;;;;;;;855.15;781.42;;;;;;;22.51;nan;100244.53;20520849;28;20061;-76
2023/04/04 14:45:32;;;;;;;878.70;803.45;;;;;;;22.57;nan;100244.00;20509465;28;20046;-75
2023/04/04 14:55:38;;;;;;;853.38;779.28;;;;;;;22.60;nan;100248.19;20544989;28;20051;-76
2023/04/04 15:05:39;;;;;;;873.88;799.13;;;;;;;22.50;nan;100243.69;20544169;28;20130;-77
2023/04/04 15:15:40;;;;;;;847.17;773.55;;;;;;;22.62;nan;100244.44;20546948;28;20055;-73
2023/04/04 15:25:41;;;;;;;740.88;674.72;;;;;;;22.72;nan;100255.03;20546917;28;20122;-75
2023/04/04 15:35:49;;;;;;;763.28;695.38;;;;;;;22.84;36.73;100256.63;20804263;28;20487;-75
2023/04/04 15:45:51;;;;;;;734.53;668.63;;;;;;;23.00;36.77;100257.94;20773820;28;20053;-74
2023/04/04 15:55:51;;;;;;;749.63;682.57;;;;;;;23.12;36.84;100278.00;20757458;28;20054;-74
2023/04/04 16:05:52;;;;;;;720.10;655.30;;;;;;;23.08;37.35;100287.13;20760421;28;20052;-78
2023/04/04 16:15:54;;;;;;;720.55;655.60;;;;;;;22.99;37.81;100301.97;20751957;28;23938;-79
2023/04/04 16:25:54;;;;;;;738.38;672.47;;;;;;;22.89;37.40;100313.47;20758915;28;20133;-76
2023/04/04 16:35:57;;;;;;;760.13;692.80;;;;;;;22.82;37.90;100324.53;20742193;28;20133;-78
2023/04/04 16:45:58;;;;;;;773.03;704.95;;;;;;;22.70;38.08;100337.00;20702503;28;20152;-77
2023/04/04 16:55:58;;;;;;;771.00;703.08;;;;;;;22.61;38.16;100353.59;20664637;28;20177;-79
2023/04/04 17:06:00;;;;;;;668.03;607.78;;;;;;;22.55;38.55;100362.88;20677736;28;20034;-79
2023/04/04 17:16:01;;;;;;;667.73;607.53;;;;;;;22.48;39.05;100387.25;20674867;28;20047;-80
2023/04/04 17:26:03;;;;;;;714.30;650.88;;;;;;;22.42;39.52;100390.41;20668562;28;20061;-74
2023/04/04 17:36:04;;;;;;;;;;;;;;;22.38;39.34;100393.28;20658309;28;20295;-75
2023/04/04 17:46:05;;;;;;;709.42;646.47;;;;;;;22.34;39.71;100412.94;20653938;28;19926;-73
2023/04/04 17:56:06;;;;;;;697.97;635.88;;;;;;;22.29;39.67;100424.84;20640803;28;20042;-72
2023/04/04 18:06:08;;;;;;;705.38;642.28;;;;;;;22.27;40.80;100438.16;20642871;28;20048;-74
2023/04/04 18:16:09;;;;;;;738.97;673.78;;;;;;;22.18;41.00;100460.00;20643074;28;20145;-73
2023/04/04 18:26:10;;;;;;;739.47;673.83;;;;;;;22.15;40.67;100469.00;20640117;28;20125;-72
2023/04/04 18:36:11;;;;;;;778.38;710.47;;;;;;;22.12;41.47;100486.84;20636010;28;20710;-76
2023/04/04 18:46:12;;;;;;;790.05;721.15;;;;;;;22.12;41.30;100506.19;20591585;28;20142;-73
2023/04/04 18:56:13;;;;;;;834.25;762.33;;;;;;;22.12;42.36;100521.13;20574295;28;20081;-74
2023/04/04 19:06:13;;;;;;;872.35;798.00;;;;;;;22.10;43.42;100541.53;20557818;28;20113;-72
2023/04/04 19:16:14;;;;;;;980.55;899.67;;;;;;;22.05;43.62;100555.91;20580641;28;20049;-73
2023/04/04 19:26:15;;;;;;;860.20;786.75;;;;;;;22.01;43.78;100572.94;20562788;28;20038;-73
2023/04/04 19:36:16;;;;;;;786.92;718.65;;;;;;;21.99;43.07;100580.13;20630642;28;20410;-77
2023/04/04 19:46:28;;;;;;;766.53;699.63;;;;;;;21.99;43.88;100593.31;20652957;28;20038;-76
2023/04/04 19:56:28;;;;;;;759.33;693.13;;;;;;;21.97;43.50;100603.16;20648975;28;20096;-77
2023/04/04 20:06:30;;;;;;;747.40;682.03;;;;;;;21.94;43.80;100608.66;20626783;28;20038;-77
2023/04/04 20:16:32;;;;;;;736.63;671.77;;;;;;;21.92;43.46;100607.91;20631463;28;20045;-75
2023/04/04 20:26:53;;;;;;;771.85;704.40;;;;;;;21.85;42.55;100602.28;20649323;28;20057;-77
2023/04/04 20:36:55;;;;;;;749.10;683.17;;;;;;;21.82;43.43;100610.41;20645463;28;20034;-77
2023/04/04 20:46:55;;;;;;;732.20;667.57;;;;;;;21.79;43.71;100615.09;20691716;28;20397;-78
2023/04/04 20:56:56;;;;;;;770.60;703.45;;;;;;;;;;20670563;28;20034;-79
2023/04/04 21:06:56;;;;;;;762.20;695.75;;;;;;;21.71;43.77;100632.31;20677018;28;20045;-78
2023/04/04 21:16:57;;;;;;;808.08;738.28;;;;;;;21.69;43.46;100623.72;20676600;28;20050;-75
2023/04/04 21:26:57;;;;;;;782.05;714.20;;;;;;;21.67;44.08;100625.63;20676838;28;20042;-75
2023/04/04 21:37:01;;;;;;;811.88;741.92;;;;;;;21.64;43.73;100619.75;20655042;28;20030;-78
2023/04/04 21:47:10;;;;;;;819.42;748.95;;;;;;;21.60;43.88;100611.22;20663533;28;20536;-76
2023/04/04 21:57:11;;;;;;;917.63;841.03;;;;;;;21.58;43.66;100619.25;20635296;28;20078;-77
2023/04/04 22:07:12;;;;;;;932.78;855.13;;;;;;;21.58;43.71;100610.50;20654659;28;20100;-80
2023/04/04 22:17:21;;;;;;;984.15;903.67;;;;;;;21.57;43.39;100606.22;20643742;28;20042;-79
2023/04/04 22:27:22;;;;;;;972.40;892.50;;;;;;;21.53;43.80;100607.34;20659320;28;20054;-79
2023/04/04 22:37:22;;;;;;;1015.97;933.58;;;;;;;21.49;43.47;100612.00;20660278;28;20112;-77
2023/04/04 22:47:23;;;;;;;1065.35;980.55;;;;;;;21.51;43.36;100617.19;20656898;28;20046;-80
2023/04/04 22:57:24;;;;;;;1134.75;999.90;;;;;;;21.47;43.24;100608.66;20662146;28;20048;-80
2023/04/04 23:07:25;;;;;;;1173.03;999.90;;;;;;;21.44;43.28;100611.50;20652434;28;20046;-82
2023/04/04 23:17:27;;;;;;;1152.43;999.90;;;;;;;21.41;43.24;100612.59;20651618;28;20145;-76
2023/04/04 23:27:33;;;;;;;469.17;423.98;;;;;;;21.39;43.73;100609.22;20659238;28;20057;-80
2023/04/04 23:37:34;;;;;;;390.25;352.55;;;;;;;21.37;43.53;100607.66;20638476;28;20070;-76
2023/04/04 23:47:35;;;;;;;368.23;332.98;;;;;;;21.35;43.49;100606.91;20652341;28;20046;-79
2023/04/04 23:57:36;;;;;;;407.73;368.20;;;;;;;21.32;43.60;100601.91;20672345;28;20137;-77
